Temp: 14.4°C   Baro: 1019.0mb
  Wind: 4.9mph   Dir: N (11°)
  Rain: 0.2mm (0.0mm/hr)
  Solar: 295W/m2  Hum: 68%
 
Bath Spa Weather Station Historical Data
Daily Summary for July 12, 2019 Units:  English    Metric   Both
Daily Weekly Monthly Yearly Custom
  High: Low: Average:
Temperature: 75.6 °F 60.3 °F 66.8 °F
Dew Point: 59.8 °F 52.7 °F 57.2 °F
Humidity: 93% 51.7% 73%
Wind Speed: 10.8mph 0mph 4.1mph
Wind Gust: 16mph - -
Wind- - WNW
Pressure: 30.15 in 29.91 in -
Precipitation: 0.02 in    
Historical Graphs
 
 
Tabular Data for July 12, 2019
Time Temperature Dew Point Pressure Wind Wind Speed Wind Gust Humidity Rainfall Rate (Hourly) solar
00:04 62.4 °F 57.2 °F 29.92 in WNW 3.9 mph 8 mph 83% 0.00 in 0 W/m2
00:09 62.2 °F 57 °F 29.92 in WNW 3.7 mph 7 mph 83% 0.00 in 0 W/m2
00:14 62.2 °F 57.2 °F 29.93 in WNW 2.1 mph 7 mph 83.4% 0.00 in 0 W/m2
00:19 62.2 °F 57.4 °F 29.92 in WNW 1 mph 4 mph 84% 0.00 in 0 W/m2
00:24 62.2 °F 57.4 °F 29.92 in WNW 2.9 mph 6 mph 84% 0.00 in 0 W/m2
00:29 62.1 °F 57.3 °F 29.92 in WNW 1.5 mph 5 mph 84% 0.00 in 0 W/m2
00:34 62.1 °F 57.2 °F 29.92 in West 3.6 mph 7 mph 84% 0.00 in 0 W/m2
00:39 62 °F 57.4 °F 29.92 in West 4 mph 7 mph 84.8% 0.00 in 0 W/m2
00:44 61.8 °F 57.3 °F 29.92 in West 3.9 mph 6 mph 85% 0.00 in 0 W/m2
00:49 61.7 °F 57.2 °F 29.92 in WNW 4.1 mph 7 mph 85% 0.00 in 0 W/m2
00:54 61.7 °F 57.2 °F 29.92 in West 3.6 mph 7 mph 85.2% 0.00 in 0 W/m2
00:59 61.7 °F 57.4 °F 29.92 in WNW 2.7 mph 7 mph 86% 0.00 in 0 W/m2
01:04 61.7 °F 57.4 °F 29.92 in West 2 mph 5 mph 86% 0.00 in 0 W/m2
01:09 61.7 °F 57.4 °F 29.92 in West 3.4 mph 6 mph 86% 0.00 in 0 W/m2
01:14 61.8 °F 57.5 °F 29.92 in West 5.2 mph 8 mph 86% 0.00 in 0 W/m2
01:19 62 °F 57.6 °F 29.92 in West 4.5 mph 8 mph 86% 0.00 in 0 W/m2
01:24 62.1 °F 57.7 °F 29.92 in West 4 mph 8 mph 86% 0.00 in 0 W/m2
01:29 62.1 °F 57.7 °F 29.92 in West 3.4 mph 6 mph 86% 0.00 in 0 W/m2
01:34 62.1 °F 57.7 °F 29.92 in West 3.2 mph 7 mph 86% 0.00 in 0 W/m2
01:39 62.1 °F 57.7 °F 29.91 in West 2.2 mph 7 mph 86% 0.00 in 0 W/m2
01:44 62.1 °F 57.7 °F 29.92 in West 3.5 mph 7 mph 86.1% 0.00 in 0 W/m2
01:49 62.1 °F 58.1 °F 29.92 in West 1.9 mph 5 mph 87% 0.00 in 0 W/m2
01:54 62.1 °F 58.1 °F 29.91 in West 3 mph 6 mph 87% 0.00 in 0 W/m2
01:59 62.1 °F 58.1 °F 29.91 in West 2.6 mph 7 mph 87% 0.00 in 0 W/m2
02:04 62.1 °F 58.1 °F 29.91 in West 2.3 mph 5 mph 87% 0.00 in 0 W/m2
02:09 62.1 °F 58.1 °F 29.91 in West 2.8 mph 5 mph 87% 0.00 in 0 W/m2
02:14 62.1 °F 58.1 °F 29.91 in WNW 5.4 mph 8 mph 87% 0.00 in 0 W/m2
02:19 62.1 °F 58.1 °F 29.91 in West 3.4 mph 6 mph 87% 0.00 in 0 W/m2
02:24 62.1 °F 58.2 °F 29.91 in West 3.9 mph 8 mph 87% 0.00 in 0 W/m2
02:29 62.2 °F 58.2 °F 29.91 in West 4.5 mph 9 mph 87% 0.00 in 0 W/m2
02:34 62.2 °F 58.5 °F 29.91 in WNW 4.3 mph 10 mph 87.6% 0.00 in 0 W/m2
02:39 62.1 °F 58.5 °F 29.91 in West 3.5 mph 6 mph 88% 0.01 in 0 W/m2
02:44 62.1 °F 58.6 °F 29.91 in WNW 3.2 mph 7 mph 88.3% 0.02 in 0 W/m2
02:49 61.9 °F 58.6 °F 29.91 in WNW 3.4 mph 8 mph 89% 0.02 in 0 W/m2
02:54 61.7 °F 58.5 °F 29.91 in West 3.9 mph 6 mph 89% 0.02 in 0 W/m2
02:59 61.5 °F 58.6 °F 29.91 in West 1.8 mph 6 mph 89.9% 0.02 in 0 W/m2
03:04 61.5 °F 58.6 °F 29.91 in West 2.2 mph 5 mph 90% 0.02 in 0 W/m2
03:09 61.5 °F 58.6 °F 29.91 in West 3.2 mph 6 mph 90.3% 0.02 in 0 W/m2
03:14 61.4 °F 58.7 °F 29.91 in WNW 2.5 mph 5 mph 91% 0.02 in 0 W/m2
03:19 61.3 °F 58.6 °F 29.91 in WNW 1.3 mph 4 mph 91% 0.02 in 0 W/m2
03:24 61.3 °F 58.6 °F 29.91 in WNW 1.7 mph 4 mph 91% 0.02 in 0 W/m2
03:29 61.3 °F 58.6 °F 29.91 in WNW 1.3 mph 3 mph 91% 0.02 in 0 W/m2
03:34 61.3 °F 58.6 °F 29.92 in WNW 0.9 mph 3 mph 91% 0.02 in 0 W/m2
03:39 61.3 °F 58.9 °F 29.92 in WNW 1 mph 4 mph 91.7% 0.01 in 0 W/m2
03:44 61.2 °F 58.9 °F 29.92 in WNW 1.6 mph 5 mph 92% 0.00 in 0 W/m2
03:49 61.2 °F 58.8 °F 29.92 in Calm   2 mph 92% 0.00 in 0 W/m2
03:54 61.3 °F 59 °F 29.92 in Calm     92% 0.00 in 0 W/m2
03:59 61.3 °F 58.9 °F 29.91 in WNW 0.9 mph 3 mph 92% 0.00 in 0 W/m2
04:04 61.2 °F 58.8 °F 29.91 in WNW 0.6 mph 4 mph 92% 0.00 in 0 W/m2
04:09 61.3 °F 58.9 °F 29.91 in WNW 0.9 mph 4 mph 92% 0.00 in 0 W/m2
04:14 61.2 °F 58.8 °F 29.91 in West 2.8 mph 5 mph 92% 0.00 in 0 W/m2
04:19 61.2 °F 58.8 °F 29.91 in West 3 mph 6 mph 92% 0.00 in 0 W/m2
04:24 61.2 °F 59 °F 29.91 in West 0.5 mph 4 mph 92.5% 0.00 in 0 W/m2
04:29 61.2 °F 59.2 °F 29.92 in West 1 mph 4 mph 93% 0.00 in 0 W/m2
04:34 61.1 °F 59.1 °F 29.92 in West 1.8 mph 4 mph 93% 0.00 in 0 W/m2
04:39 60.9 °F 58.9 °F 29.92 in West 1.2 mph 4 mph 93% 0.00 in 0 W/m2
04:44 60.8 °F 58.8 °F 29.92 in West 1.7 mph 4 mph 93% 0.00 in 0 W/m2
04:49 60.8 °F 58.8 °F 29.91 in West 1.2 mph 4 mph 93% 0.00 in 0 W/m2
04:54 60.8 °F 58.8 °F 29.92 in West 0.5 mph 2 mph 93% 0.00 in 0 W/m2
04:59 60.8 °F 58.8 °F 29.92 in West 0.4 mph 2 mph 93% 0.00 in 0 W/m2
05:04 60.8 °F 58.8 °F 29.92 in West 0.8 mph 4 mph 93% 0.00 in 0 W/m2
05:09 60.8 °F 58.8 °F 29.92 in West 1.4 mph 4 mph 93% 0.00 in 0 W/m2
05:14 60.8 °F 58.8 °F 29.93 in West 1.7 mph 4 mph 93% 0.00 in 5 W/m2
05:19 60.6 °F 58.6 °F 29.93 in West 1.6 mph 5 mph 93% 0.00 in 7 W/m2
05:24 60.6 °F 58.6 °F 29.93 in West 1.5 mph 6 mph 93% 0.00 in 7 W/m2
05:29 60.6 °F 58.6 °F 29.93 in West 1.7 mph 6 mph 93% 0.00 in 9 W/m2
05:34 60.6 °F 58.6 °F 29.93 in West 2 mph 5 mph 93% 0.00 in 9 W/m2
05:39 60.6 °F 58.6 °F 29.93 in West 1.9 mph 5 mph 93% 0.00 in 9 W/m2
05:44 60.6 °F 58.6 °F 29.93 in West 1.3 mph 4 mph 93% 0.00 in 9 W/m2
05:49 60.6 °F 58.6 °F 29.93 in West 1.8 mph 5 mph 93% 0.00 in 11 W/m2
05:54 60.4 °F 58.5 °F 29.93 in West 2.3 mph 5 mph 93% 0.00 in 11 W/m2
05:59 60.4 °F 58.5 °F 29.94 in West 3 mph 6 mph 93% 0.00 in 21 W/m2
06:04 60.4 °F 58.5 °F 29.94 in West 3.5 mph 7 mph 93% 0.00 in 25 W/m2
06:09 60.6 °F 58.6 °F 29.94 in WSW 2.3 mph 7 mph 93% 0.00 in 28 W/m2
06:14 60.6 °F 58.6 °F 29.94 in WSW 1.2 mph 5 mph 93% 0.00 in 28 W/m2
06:19 60.6 °F 58.6 °F 29.94 in West 4.2 mph 8 mph 93% 0.00 in 30 W/m2
06:24 60.6 °F 58.6 °F 29.95 in West 3.7 mph 8 mph 93% 0.00 in 35 W/m2
06:29 60.4 °F 58.5 °F 29.95 in West 3.3 mph 7 mph 93% 0.00 in 35 W/m2
06:34 60.4 °F 58.5 °F 29.95 in West 2.7 mph 7 mph 93% 0.00 in 42 W/m2
06:39 60.3 °F 58.3 °F 29.95 in West 2.8 mph 7 mph 93% 0.00 in 42 W/m2
06:44 60.3 °F 58.3 °F 29.95 in West 0.7 mph 4 mph 93% 0.00 in 53 W/m2
06:49 60.3 °F 58.3 °F 29.95 in West 2.2 mph 5 mph 93% 0.00 in 62 W/m2
06:54 60.3 °F 58.3 °F 29.95 in West 1.2 mph 5 mph 93% 0.00 in 72 W/m2
06:59 60.3 °F 58.3 °F 29.95 in West 0.9 mph 4 mph 93% 0.00 in 93 W/m2
07:04 60.3 °F 58.4 °F 29.95 in West 2.2 mph 5 mph 93% 0.00 in 102 W/m2
07:09 60.4 °F 58.5 °F 29.95 in West 2.1 mph 4 mph 93% 0.00 in 123 W/m2
07:14 60.6 °F 58.6 °F 29.96 in West 0.8 mph 4 mph 93% 0.00 in 142 W/m2
07:19 60.7 °F 58.7 °F 29.96 in West 1 mph 3 mph 93% 0.00 in 142 W/m2
07:24 60.8 °F 58.8 °F 29.96 in West 0.7 mph 3 mph 93% 0.00 in 162 W/m2
07:29 60.8 °F 58.8 °F 29.96 in West 1.1 mph 4 mph 93% 0.00 in 236 W/m2
07:34 61.2 °F 59.2 °F 29.96 in West 1.8 mph 4 mph 93% 0.00 in 236 W/m2
07:39 61.3 °F 59.3 °F 29.96 in West 2.4 mph 7 mph 93% 0.00 in 320 W/m2
07:44 61.6 °F 59.6 °F 29.96 in West 4 mph 8 mph 93% 0.00 in 320 W/m2
07:49 61.8 °F 59.6 °F 29.96 in WNW 3.3 mph 9 mph 92.5% 0.00 in 327 W/m2
07:54 62.1 °F 59.7 °F 29.97 in WNW 3.3 mph 9 mph 92% 0.00 in 200 W/m2
07:59 62.2 °F 59.8 °F 29.97 in WNW 3.2 mph 10 mph 91.9% 0.00 in 160 W/m2
08:04 62.1 °F 59.4 °F 29.96 in NNW 5.7 mph 9 mph 90.7% 0.00 in 338 W/m2
08:09 62.2 °F 58.9 °F 29.97 in NW 5 mph 9 mph 89% 0.00 in 338 W/m2
08:14 62.6 °F 58.7 °F 29.96 in WNW 2.9 mph 9 mph 87.2% 0.00 in 311 W/m2
08:19 63 °F 58.5 °F 29.97 in NW 4.3 mph 7 mph 85.3% 0.00 in 330 W/m2
08:24 63.3 °F 58.3 °F 29.97 in NW 2.5 mph 7 mph 83.3% 0.00 in 345 W/m2
08:29 63.7 °F 58 °F 29.97 in NW 5 mph 9 mph 81.7% 0.00 in 359 W/m2
08:34 63.9 °F 57.7 °F 29.97 in NW 3.6 mph 7 mph 80.4% 0.00 in 374 W/m2
08:39 64.4 °F 57.6 °F 29.97 in NW 3.1 mph 7 mph 78.6% 0.00 in 399 W/m2
08:44 64.9 °F 57.6 °F 29.97 in NNW 2.8 mph 8 mph 77.1% 0.00 in 424 W/m2
08:49 65.1 °F 57.1 °F 29.97 in NW 5.6 mph 9 mph 75.4% 0.00 in 431 W/m2
08:54 65.1 °F 56.9 °F 29.97 in NW 3.6 mph 9 mph 74.9% 0.00 in 438 W/m2
08:59 65.6 °F 57.1 °F 29.97 in NW 4.6 mph 10 mph 73.9% 0.00 in 448 W/m2
09:04 65.8 °F 56.9 °F 29.97 in NW 4.7 mph 10 mph 72.7% 0.00 in 462 W/m2
09:09 66.1 °F 56.7 °F 29.97 in NW 4.5 mph 11 mph 71.8% 0.00 in 483 W/m2
09:14 66.3 °F 56.3 °F 29.98 in North 4.8 mph 10 mph 70.4% 0.00 in 506 W/m2
09:19 66.2 °F 56.2 °F 29.97 in NNW 5.3 mph 10 mph 70.2% 0.00 in 526 W/m2
09:24 66.2 °F 55.8 °F 29.97 in NW 6.7 mph 12 mph 69% 0.01 in 571 W/m2
09:29 66.1 °F 55.8 °F 29.97 in NNW 5.6 mph 10 mph 69.3% 0.01 in 570 W/m2
09:34 66.5 °F 56.2 °F 29.97 in North 3.2 mph 8 mph 69.3% 0.01 in 570 W/m2
09:39 67.1 °F 56.3 °F 29.97 in NNW 6.3 mph 12 mph 68.2% 0.01 in 591 W/m2
09:44 67.3 °F 56.1 °F 29.98 in NNW 4.4 mph 12 mph 67.4% 0.01 in 591 W/m2
09:49 67.2 °F 55.7 °F 29.98 in NNW 5.3 mph 10 mph 66.6% 0.01 in 682 W/m2
09:54 67.5 °F 55.9 °F 29.98 in NNW 5.9 mph 13 mph 66.5% 0.01 in 698 W/m2
09:59 67.1 °F 55.4 °F 29.98 in NNW 6 mph 11 mph 66.1% 0.01 in 656 W/m2
10:04 67.3 °F 55.6 °F 29.98 in NNW 5.5 mph 10 mph 66% 0.01 in 645 W/m2
10:09 67.6 °F 55.7 °F 29.98 in NNW 7.1 mph 12 mph 65.7% 0.01 in 649 W/m2
10:14 67.9 °F 55.5 °F 29.98 in North 4.8 mph 12 mph 64.5% 0.01 in 700 W/m2
10:19 68.3 °F 55.8 °F 29.98 in NNW 5.1 mph 11 mph 64.1% 0.01 in 814 W/m2
10:24 68.6 °F 56.3 °F 29.98 in NNW 6.1 mph 13 mph 64.7% 0.01 in 814 W/m2
10:29 67.9 °F 55.7 °F 29.98 in NW 4.7 mph 13 mph 64.9% 0.00 in 209 W/m2
10:34 67.9 °F 56.2 °F 29.98 in NNW 5.5 mph 10 mph 66% 0.00 in 758 W/m2
10:39 68.6 °F 56.5 °F 29.98 in NNW 5.5 mph 11 mph 65.3% 0.00 in 812 W/m2
10:44 68.7 °F 56.5 °F 29.98 in WNW 5.8 mph 10 mph 65% 0.00 in 789 W/m2
10:49 68.5 °F 56.9 °F 29.98 in NW 5.6 mph 11 mph 66.6% 0.00 in 763 W/m2
10:54 69.4 °F 57.7 °F 29.98 in NNW 4.3 mph 11 mph 66.3% 0.00 in 865 W/m2
10:59 69.4 °F 57.4 °F 29.98 in NNW 5.3 mph 9 mph 65.7% 0.00 in 865 W/m2
11:04 69.2 °F 57.6 °F 29.99 in North 7.4 mph 13 mph 66.5% 0.00 in 376 W/m2
11:09 69 °F 57.9 °F 29.99 in NW 5.7 mph 11 mph 67.7% 0.00 in 376 W/m2
11:14 69.1 °F 57.8 °F 29.99 in NW 4.9 mph 8 mph 67.3% 0.00 in 990 W/m2
11:19 69.6 °F 57.9 °F 29.99 in NW 5.7 mph 10 mph 66.6% 0.00 in 997 W/m2
11:24 69.3 °F 57.8 °F 29.99 in North 6 mph 12 mph 67% 0.00 in 997 W/m2
11:29 69.6 °F 58.3 °F 29.99 in NW 4.1 mph 9 mph 67.4% 0.00 in 991 W/m2
11:34 70.2 °F 58.4 °F 29.99 in WNW 5 mph 12 mph 66.3% 0.00 in 508 W/m2
11:39 69.5 °F 57.9 °F 29.99 in WNW 4.7 mph 10 mph 66.7% 0.00 in 816 W/m2
11:44 69.5 °F 58.3 °F 29.99 in NW 5 mph 10 mph 67.5% 0.00 in 893 W/m2
11:49 70.1 °F 58.3 °F 29.99 in NNW 6.1 mph 11 mph 66.1% 0.00 in 923 W/m2
11:54 69.8 °F 57.7 °F 29.99 in NW 4.7 mph 11 mph 65.3% 0.00 in 923 W/m2
11:59 69.4 °F 57.8 °F 29.99 in WNW 2.9 mph 8 mph 66.7% 0.00 in 327 W/m2
12:04 69.7 °F 57.7 °F 29.99 in NW 3.9 mph 10 mph 65.5% 0.00 in 1014 W/m2
12:09 70.1 °F 57.8 °F 29.99 in WNW 6.4 mph 12 mph 65% 0.00 in 422 W/m2
12:14 70.1 °F 57.9 °F 30.00 in NNW 5.7 mph 9 mph 65.1% 0.00 in 223 W/m2
12:19 69.9 °F 57.8 °F 30.00 in NW 6.2 mph 10 mph 65.3% 0.00 in 898 W/m2
12:24 70.5 °F 58.2 °F 30.00 in NW 5.2 mph 10 mph 65% 0.00 in 940 W/m2
12:29 71.3 °F 58.5 °F 29.99 in NW 4.4 mph 10 mph 64% 0.00 in 940 W/m2
12:34 71.4 °F 57.8 °F 30.00 in NW 6 mph 15 mph 62.1% 0.00 in 1002 W/m2
12:39 71.2 °F 56.7 °F 30.00 in NW 5.6 mph 12 mph 60.4% 0.00 in 383 W/m2
12:44 71.2 °F 57.1 °F 30.00 in NNW 4.8 mph 11 mph 61.3% 0.00 in 383 W/m2
12:49 70.8 °F 57.3 °F 30.00 in NW 9.1 mph 15 mph 62.3% 0.00 in 313 W/m2
12:54 70.4 °F 57.2 °F 30.00 in NNW 6.2 mph 15 mph 62.8% 0.00 in 237 W/m2
12:59 70.9 °F 57.5 °F 30.00 in NW 6.2 mph 10 mph 62.7% 0.00 in 933 W/m2
13:04 71 °F 57.1 °F 30.00 in WNW 7.5 mph 12 mph 61.7% 0.00 in 933 W/m2
13:09 71.8 °F 56.9 °F 30.00 in WNW 5.3 mph 11 mph 59.4% 0.00 in 918 W/m2
13:14 72.4 °F 56.9 °F 30.00 in WNW 3.3 mph 11 mph 58.2% 0.00 in 954 W/m2
13:19 73.3 °F 56.9 °F 30.00 in WNW 3.2 mph 7 mph 56.5% 0.00 in 925 W/m2
13:24 74.1 °F 56.2 °F 30.00 in NW 6.4 mph 12 mph 53.5% 0.00 in 979 W/m2
13:29 73.2 °F 55.7 °F 30.00 in NW 5.9 mph 11 mph 54.2% 0.00 in 360 W/m2
13:34 72.9 °F 56.1 °F 30.00 in WNW 6.2 mph 13 mph 55.6% 0.00 in 949 W/m2
13:39 73.8 °F 56.2 °F 30.00 in NNW 5.3 mph 11 mph 54% 0.00 in 965 W/m2
13:44 73.6 °F 56.4 °F 30.00 in West 4.4 mph 13 mph 54.9% 0.00 in 438 W/m2
13:49 74 °F 56.8 °F 30.00 in NNW 5.4 mph 11 mph 55.1% 0.00 in 313 W/m2
13:54 73.2 °F 56.6 °F 30.00 in NW 4.4 mph 9 mph 55.9% 0.00 in 322 W/m2
13:59 73.1 °F 56.5 °F 30.00 in NNW 6.7 mph 12 mph 55.9% 0.00 in 768 W/m2
14:04 73.2 °F 55.9 °F 30.00 in NNW 5.9 mph 12 mph 54.6% 0.00 in 682 W/m2
14:09 73.6 °F 55.2 °F 30.00 in North 7.1 mph 13 mph 52.6% 0.00 in 954 W/m2
14:14 73.9 °F 56 °F 30.00 in NNW 5.9 mph 12 mph 53.4% 0.00 in 932 W/m2
14:19 74.1 °F 56.5 °F 30.00 in NNW 6 mph 14 mph 53.9% 0.00 in 925 W/m2
14:24 74.7 °F 56.2 °F 30.00 in NNW 7.1 mph 12 mph 52.4% 0.00 in 1023 W/m2
14:29 74.6 °F 55.7 °F 30.00 in NW 5.8 mph 14 mph 51.7% 0.00 in 1044 W/m2
14:34 74.2 °F 56.6 °F 30.00 in NNW 5.1 mph 14 mph 54.3% 0.00 in 907 W/m2
14:39 75.1 °F 57 °F 30.00 in NNW 6.2 mph 16 mph 53.5% 0.00 in 881 W/m2
14:44 75 °F 56.7 °F 30.01 in NNW 7.4 mph 12 mph 53% 0.00 in 967 W/m2
14:49 73.9 °F 56.8 °F 30.01 in NNW 6.6 mph 13 mph 55.1% 0.00 in 967 W/m2
14:54 73.3 °F 57 °F 30.01 in NW 6.8 mph 13 mph 56.9% 0.00 in 271 W/m2
14:59 73 °F 56.6 °F 30.01 in NW 5.9 mph 14 mph 56.2% 0.00 in 272 W/m2
15:04 73.2 °F 56.4 °F 30.01 in NNW 6 mph 11 mph 55.7% 0.00 in 244 W/m2
15:09 72.5 °F 56.4 °F 30.01 in NW 5.9 mph 10 mph 56.9% 0.00 in 332 W/m2
15:14 72.6 °F 56.5 °F 30.01 in NW 5.4 mph 11 mph 57% 0.00 in 332 W/m2
15:19 72.9 °F 56.5 °F 30.01 in North 6.6 mph 10 mph 56.3% 0.00 in 327 W/m2
15:24 72.9 °F 56.3 °F 30.01 in North 5.4 mph 10 mph 56.1% 0.00 in 223 W/m2
15:29 73 °F 56.4 °F 30.01 in NW 7.1 mph 13 mph 55.8% 0.00 in 810 W/m2
15:34 73.5 °F 56.8 °F 30.01 in NNW 5.2 mph 13 mph 56.1% 0.00 in 800 W/m2
15:39 74.1 °F 56.7 °F 30.01 in NW 6.8 mph 12 mph 54.6% 0.00 in 788 W/m2
15:44 74 °F 56.3 °F 30.01 in NW 7.2 mph 13 mph 53.8% 0.00 in 802 W/m2
15:49 74.4 °F 56.7 °F 30.01 in North 7 mph 13 mph 54% 0.00 in 798 W/m2
15:54 74.2 °F 56.6 °F 30.01 in NW 6.4 mph 15 mph 54% 0.00 in 768 W/m2
15:59 74.7 °F 56.9 °F 30.01 in NW 4.1 mph 15 mph 54% 0.00 in 793 W/m2
16:04 75.1 °F 57 °F 30.01 in NW 6.2 mph 15 mph 53.3% 0.00 in 840 W/m2
16:09 75.1 °F 56.7 °F 30.01 in NW 7.3 mph 13 mph 53% 0.00 in 840 W/m2
16:14 74.9 °F 56.3 °F 30.01 in NW 6.6 mph 14 mph 52.4% 0.00 in 749 W/m2
16:19 74 °F 56 °F 30.01 in NW 6.1 mph 12 mph 53.4% 0.00 in 185 W/m2
16:24 73.9 °F 56.5 °F 30.01 in WNW 4.1 mph 12 mph 54.7% 0.00 in 199 W/m2
16:29 74.4 °F 57 °F 30.01 in NW 3.8 mph 12 mph 54.8% 0.00 in 788 W/m2
16:34 75.1 °F 57.3 °F 30.01 in NNW 7.8 mph 12 mph 54% 0.00 in 793 W/m2
16:39 75.6 °F 57.5 °F 30.02 in NNW 8 mph 12 mph 53.6% 0.00 in 765 W/m2
16:44 75.1 °F 56.9 °F 30.02 in NW 7.3 mph 12 mph 53.2% 0.00 in 765 W/m2
16:49 74.6 °F 56.6 °F 30.02 in NW 7 mph 12 mph 53.4% 0.00 in 737 W/m2
16:54 73.7 °F 57 °F 30.02 in NW 7.2 mph 15 mph 56% 0.00 in 714 W/m2
16:59 74 °F 57.5 °F 30.02 in NW 7.4 mph 14 mph 56.3% 0.00 in 714 W/m2
17:04 74.4 °F 57.8 °F 30.02 in NW 5.3 mph 14 mph 56.2% 0.00 in 661 W/m2
17:09 74.9 °F 57.8 °F 30.02 in NW 7.7 mph 12 mph 55.4% 0.00 in 642 W/m2
17:14 74.7 °F 57.8 °F 30.02 in North 10.8 mph 15 mph 55.8% 0.00 in 612 W/m2
17:19 74.6 °F 57.7 °F 30.02 in NNW 7.5 mph 15 mph 55.8% 0.00 in 596 W/m2
17:24 74.3 °F 57.8 °F 30.02 in NNW 7.5 mph 12 mph 56.3% 0.00 in 568 W/m2
17:29 74.4 °F 57.5 °F 30.02 in NNW 6.4 mph 11 mph 55.7% 0.00 in 561 W/m2
17:34 74.2 °F 57.3 °F 30.02 in North 6.3 mph 12 mph 55.8% 0.00 in 559 W/m2
17:39 73.1 °F 56.8 °F 30.02 in NNW 6.5 mph 14 mph 56.8% 0.00 in 91 W/m2
17:44 72.4 °F 56.7 °F 30.02 in NNW 4.9 mph 10 mph 57.9% 0.00 in 519 W/m2
17:49 72.9 °F 56.7 °F 30.02 in NNW 6.2 mph 11 mph 57.1% 0.00 in 517 W/m2
17:54 73.2 °F 56.8 °F 30.02 in NW 7.9 mph 12 mph 56.4% 0.00 in 492 W/m2
17:59 73.4 °F 56.8 °F 30.02 in NW 7.7 mph 13 mph 56.2% 0.00 in 462 W/m2
18:04 73.9 °F 57.6 °F 30.03 in NNW 5.5 mph 13 mph 56.8% 0.00 in 459 W/m2
18:09 74.3 °F 57.7 °F 30.03 in NNW 4.4 mph 11 mph 56.2% 0.00 in 441 W/m2
18:14 74.3 °F 57.5 °F 30.03 in NW 7.2 mph 15 mph 55.9% 0.00 in 427 W/m2
18:19 73.9 °F 57.1 °F 30.03 in NW 5.3 mph 12 mph 55.8% 0.00 in 418 W/m2
18:24 73.7 °F 56.5 °F 30.03 in North 6.3 mph 13 mph 55% 0.00 in 403 W/m2
18:29 72.8 °F 56.7 °F 30.03 in NW 6.9 mph 12 mph 57.3% 0.00 in 410 W/m2
18:34 72.9 °F 57 °F 30.03 in NNW 7.3 mph 12 mph 57.7% 0.00 in 418 W/m2
18:39 73.1 °F 57 °F 30.03 in NW 6.7 mph 14 mph 57.2% 0.00 in 420 W/m2
18:44 73.4 °F 57.3 °F 30.04 in NNW 6.8 mph 12 mph 57.2% 0.00 in 390 W/m2
18:49 73.3 °F 57.6 °F 30.04 in North 7.3 mph 15 mph 58% 0.00 in 367 W/m2
18:54 72.4 °F 57.5 °F 30.04 in North 7.2 mph 15 mph 59.4% 0.00 in 91 W/m2
18:59 71.9 °F 57.5 °F 30.05 in NNW 5.5 mph 13 mph 60.6% 0.00 in 86 W/m2
19:04 71.7 °F 57.5 °F 30.05 in NNW 4.6 mph 13 mph 61% 0.00 in 320 W/m2
19:09 71.8 °F 58 °F 30.05 in NNW 5.9 mph 11 mph 61.8% 0.00 in 105 W/m2
19:14 71.5 °F 58.1 °F 30.06 in NNW 5.9 mph 13 mph 62.8% 0.00 in 132 W/m2
19:19 71.3 °F 58.4 °F 30.06 in NNW 6.6 mph 12 mph 63.7% 0.00 in 294 W/m2
19:24 71.8 °F 58.5 °F 30.06 in NNW 3 mph 12 mph 63% 0.00 in 262 W/m2
19:29 72.1 °F 58.6 °F 30.06 in North 6.9 mph 13 mph 62.5% 0.00 in 244 W/m2
19:34 71.7 °F 58.4 °F 30.06 in NNW 6.1 mph 14 mph 63% 0.00 in 258 W/m2
19:39 71.9 °F 58.6 °F 30.06 in North 4.9 mph 12 mph 63% 0.00 in 265 W/m2
19:44 71.9 °F 58.5 °F 30.06 in North 5.9 mph 11 mph 63% 0.00 in 250 W/m2
19:49 71.4 °F 58.5 °F 30.06 in North 4.6 mph 11 mph 63.7% 0.00 in 220 W/m2
19:54 71.3 °F 58.6 °F 30.06 in NW 4.8 mph 12 mph 64.1% 0.00 in 146 W/m2
19:59 71 °F 58.5 °F 30.07 in NNW 6.5 mph 13 mph 65% 0.00 in 137 W/m2
20:04 70.3 °F 58.1 °F 30.07 in NNW 6 mph 12 mph 65.3% 0.00 in 116 W/m2
20:09 69.9 °F 58 °F 30.07 in North 5.2 mph 9 mph 66% 0.00 in 114 W/m2
20:14 69.8 °F 57.8 °F 30.07 in North 4 mph 9 mph 66% 0.00 in 118 W/m2
20:19 70.1 °F 58.2 °F 30.08 in North 4.3 mph 10 mph 66% 0.00 in 107 W/m2
20:24 70.1 °F 58.2 °F 30.08 in North 3.9 mph 10 mph 66% 0.00 in 72 W/m2
20:29 69.5 °F 57.8 °F 30.08 in NNW 2.9 mph 9 mph 66.5% 0.00 in 60 W/m2
20:34 69.4 °F 57.9 °F 30.08 in NNW 4.9 mph 10 mph 67% 0.00 in 44 W/m2
20:39 68.9 °F 57.7 °F 30.08 in NNW 3.8 mph 9 mph 67.3% 0.00 in 47 W/m2
20:44 68.8 °F 57.8 °F 30.08 in NNW 3.9 mph 9 mph 68% 0.00 in 42 W/m2
20:49 68.6 °F 57.7 °F 30.09 in NW 5.6 mph 13 mph 68% 0.00 in 21 W/m2
20:54 68.5 °F 57.6 °F 30.09 in NNW 3.1 mph 7 mph 68% 0.00 in 18 W/m2
20:59 68.2 °F 57.3 °F 30.09 in NW 3.4 mph 8 mph 68.3% 0.00 in 16 W/m2
21:04 67.9 °F 57.3 °F 30.09 in NNW 4.4 mph 8 mph 69% 0.00 in 19 W/m2
21:09 67.6 °F 57 °F 30.09 in NW 4.8 mph 11 mph 69% 0.00 in 16 W/m2
21:14 67.2 °F 56.7 °F 30.09 in NW 5.1 mph 12 mph 69% 0.00 in 11 W/m2
21:19 66.8 °F 56.4 °F 30.10 in NNW 5.5 mph 12 mph 69% 0.00 in 5 W/m2
21:24 66.6 °F 56.5 °F 30.10 in NW 3.6 mph 9 mph 70% 0.00 in 0 W/m2
21:29 66.3 °F 56.2 °F 30.11 in WNW 3.3 mph 9 mph 70% 0.00 in 0 W/m2
21:34 66 °F 55.9 °F 30.10 in NW 4.2 mph 8 mph 70% 0.00 in 0 W/m2
21:39 65.7 °F 55.8 °F 30.11 in WNW 2.3 mph 7 mph 70.6% 0.00 in 0 W/m2
21:44 65.4 °F 55.7 °F 30.11 in WNW 2 mph 5 mph 71% 0.00 in 0 W/m2
21:49 65.1 °F 55.5 °F 30.12 in NW 3.3 mph 8 mph 71% 0.00 in 0 W/m2
21:54 64.8 °F 55.3 °F 30.12 in NW 2 mph 8 mph 71% 0.00 in 0 W/m2
21:59 64.4 °F 55.2 °F 30.12 in NW 2.6 mph 4 mph 72% 0.00 in 0 W/m2
22:04 64.2 °F 55 °F 30.12 in NW 0.9 mph 4 mph 72% 0.00 in 0 W/m2
22:09 64 °F 54.9 °F 30.12 in NW 1 mph 4 mph 72% 0.00 in 0 W/m2
22:14 63.9 °F 54.8 °F 30.12 in WNW 1.1 mph 5 mph 72.1% 0.00 in 0 W/m2
22:19 63.8 °F 54.9 °F 30.12 in West 1.8 mph 5 mph 73% 0.00 in 0 W/m2
22:24 63.6 °F 54.8 °F 30.13 in West 0.3 mph 3 mph 73% 0.00 in 0 W/m2
22:29 63.5 °F 54.7 °F 30.13 in West 0.6 mph 3 mph 73% 0.00 in 0 W/m2
22:34 63.3 °F 54.5 °F 30.13 in West 1 mph 4 mph 73% 0.00 in 0 W/m2
22:39 63.1 °F 54.3 °F 30.13 in West 1.9 mph 6 mph 73% 0.00 in 0 W/m2
22:44 62.8 °F 54.2 °F 30.13 in West 2.6 mph 6 mph 73.7% 0.00 in 0 W/m2
22:49 62.5 °F 54.1 °F 30.14 in West 2.5 mph 6 mph 74% 0.00 in 0 W/m2
22:54 62.3 °F 53.9 °F 30.14 in West 3.3 mph 6 mph 74% 0.00 in 0 W/m2
22:59 62.1 °F 53.6 °F 30.14 in West 2.6 mph 6 mph 74% 0.00 in 0 W/m2
23:04 61.8 °F 53.3 °F 30.14 in West 3.2 mph 6 mph 74% 0.00 in 0 W/m2
23:09 61.6 °F 53.5 °F 30.14 in West 1.7 mph 6 mph 74.6% 0.00 in 0 W/m2
23:14 61.5 °F 53.6 °F 30.14 in West 1.3 mph 5 mph 75% 0.00 in 0 W/m2
23:19 61.4 °F 53.5 °F 30.14 in West 0.6 mph 2 mph 75% 0.00 in 0 W/m2
23:24 61.3 °F 53.3 °F 30.15 in West 0.9 mph 2 mph 75% 0.00 in 0 W/m2
23:29 61.1 °F 53.2 °F 30.15 in West 0.4 mph 2 mph 75% 0.00 in 0 W/m2
23:34 60.9 °F 53 °F 30.15 in West 0.5 mph 3 mph 75% 0.00 in 0 W/m2
23:39 60.8 °F 52.9 °F 30.15 in WNW 1.9 mph 5 mph 75% 0.00 in 0 W/m2
23:44 60.8 °F 52.9 °F 30.15 in WNW 0.6 mph 3 mph 75.2% 0.00 in 0 W/m2
23:49 60.6 °F 53.1 °F 30.15 in WNW 0.7 mph 3 mph 76% 0.00 in 0 W/m2
23:54 60.4 °F 52.9 °F 30.15 in Calm   2 mph 76% 0.00 in 0 W/m2
23:59 60.3 °F 52.7 °F 30.15 in Calm     76% 0.00 in 0 W/m2
Bath Spa Weather
Compliments of Weather Underground - 2 mb